Time;durP1;ratioP1;P1;durP2;ratioP2;P2;SDS_P1;SDS_P2;PMS_P1;PMS_P2;Temp;Humidity;BMP_temperature;BMP_pressure;BME280_temperature;BME280_humidity;BME280_pressure;Samples;Min_cycle;Max_cycle;Signal;HPM_P1;HPM_P2
2022/09/12 00:02:02;;;;;;;9.52;8.63;;;14.70;99.90;;;;;;4899422;28;20051;-81
2022/09/12 00:04:28;;;;;;;9.48;8.50;;;14.60;99.90;;;;;;4924443;28;20039;-82
2022/09/12 00:06:54;;;;;;;9.55;7.93;;;14.70;99.90;;;;;;4957093;28;20090;-81
2022/09/12 00:09:20;;;;;;;10.52;9.35;;;14.70;99.90;;;;;;4935807;29;20079;-81
2022/09/12 00:11:46;;;;;;;9.73;8.57;;;14.70;99.90;;;;;;4938590;28;20073;-82
2022/09/12 00:14:16;;;;;;;9.98;8.98;;;14.70;99.90;;;;;;4907502;29;20078;-81
2022/09/12 00:16:43;;;;;;;10.30;8.52;;;14.70;99.90;;;;;;4938761;29;20071;-82
2022/09/12 00:19:09;;;;;;;9.52;8.68;;;14.60;99.90;;;;;;4938515;29;20102;-81
2022/09/12 00:21:37;;;;;;;10.20;8.98;;;14.70;99.90;;;;;;4923590;29;20459;-83
2022/09/12 00:24:04;;;;;;;8.98;8.18;;;14.70;99.90;;;;;;4924923;28;20117;-83
2022/09/12 00:26:30;;;;;;;10.30;8.45;;;14.60;99.90;;;;;;4938248;29;20036;-82
2022/09/12 00:28:56;;;;;;;9.75;8.75;;;14.80;99.90;;;;;;4920936;29;20050;-83
2022/09/12 00:31:24;;;;;;;9.82;8.80;;;14.60;99.90;;;;;;4922624;29;20472;-82
2022/09/12 00:33:50;;;;;;;9.07;8.18;;;14.70;99.90;;;;;;4933348;29;20093;-81
2022/09/12 00:36:19;;;;;;;9.68;8.68;;;14.60;99.90;;;;;;4905754;28;20452;-82
2022/09/12 00:38:45;;;;;;;10.23;8.70;;;14.50;99.90;;;;;;4923258;29;20507;-82
2022/09/12 00:41:17;;;;;;;10.07;9.00;;;14.60;99.90;;;;;;4925205;29;20050;-83
2022/09/12 00:43:48;;;;;;;9.98;9.00;;;14.60;99.90;;;;;;4917320;28;20047;-83
2022/09/12 00:46:42;;;;;;;10.73;8.68;;;14.60;99.90;;;;;;4934528;29;20046;-83
2022/09/12 00:49:14;;;;;;;9.80;8.90;;;14.50;99.90;;;;;;4953684;29;20039;-83
2022/09/12 00:51:48;;;;;;;9.90;8.90;;;14.50;99.90;;;;;;4920504;29;20060;-83
2022/09/12 00:54:21;;;;;;;10.57;9.48;;;14.50;99.90;;;;;;4951719;28;20567;-83
2022/09/12 00:56:50;;;;;;;10.75;9.60;;;14.40;99.90;;;;;;4923524;29;20047;-83
2022/09/12 00:59:20;;;;;;;10.98;9.77;;;14.40;99.90;;;;;;4923522;28;20043;-83
2022/09/12 01:01:48;;;;;;;10.13;9.02;;;14.50;99.90;;;;;;4921721;29;20166;-82
2022/09/12 01:04:16;;;;;;;9.93;8.93;;;14.40;99.90;;;;;;4919178;29;20047;-82
2022/09/12 01:06:43;;;;;;;10.75;9.65;;;14.40;99.90;;;;;;4933872;29;20038;-82
2022/09/12 01:09:15;;;;;;;10.10;9.20;;;14.40;99.90;;;;;;4937336;28;20548;-81
2022/09/12 01:11:44;;;;;;;9.90;8.95;;;14.40;99.90;;;;;;4937987;29;20050;-80
2022/09/12 01:14:11;;;;;;;10.68;9.57;;;14.30;99.90;;;;;;4921219;28;20102;-83
2022/09/12 01:16:37;;;;;;;11.40;10.20;;;14.30;99.90;;;;;;4913905;29;20046;-83
2022/09/12 01:19:22;;;;;;;13.30;10.82;;;14.30;99.90;;;;;;4922894;29;20411;-83
2022/09/12 01:22:31;;;;;;;11.38;10.20;;;14.30;99.90;;;;;;4921257;29;20051;-83
2022/09/12 01:25:38;;;;;;;11.68;10.48;;;14.30;99.90;;;;;;4919352;29;20035;-85
2022/09/12 01:28:42;;;;;;;11.80;10.60;;;15.30;99.90;;;;;;4921626;29;20098;-83
2022/09/12 01:31:28;;;;;;;13.60;10.75;;;14.30;99.90;;;;;;4888823;28;20052;-84
2022/09/12 01:34:34;;;;;;;17.23;10.80;;;14.20;99.90;;;;;;4920648;29;20047;-85
2022/09/12 01:37:14;;;;;;;11.95;10.75;;;14.30;99.90;;;;;;4929112;29;20043;-83
2022/09/12 01:40:00;;;;;;;15.80;11.23;;;14.20;99.90;;;;;;4951209;29;20051;-83
2022/09/12 01:42:35;;;;;;;12.23;11.10;;;14.20;99.90;;;;;;4924137;29;20048;-83
2022/09/12 01:45:26;;;;;;;12.55;11.30;;;14.10;99.90;;;;;;4956367;28;20449;-83
2022/09/12 01:48:30;;;;;;;12.70;11.45;;;14.10;99.90;;;;;;4932350;29;20075;-82
2022/09/12 01:50:59;;;;;;;12.30;11.10;;;14.20;99.90;;;;;;4909066;29;20055;-83
2022/09/12 01:53:37;;;;;;;12.93;11.73;;;14.10;99.90;;;;;;4921783;29;20070;-83
2022/09/12 01:56:10;;;;;;;14.00;12.57;;;13.80;99.90;;;;;;4918617;29;20047;-82
2022/09/12 01:58:46;;;;;;;12.95;11.75;;;14.10;99.90;;;;;;4970235;28;20400;-85
2022/09/12 02:01:26;;;;;;;13.32;12.00;;;14.10;99.90;;;;;;4951828;29;20054;-82
2022/09/12 02:03:58;;;;;;;14.63;13.10;;;14.10;99.90;;;;;;4916968;29;20046;-82
2022/09/12 02:06:40;;;;;;;14.57;13.07;;;14.00;99.90;;;;;;4935105;29;20047;-83
2022/09/12 02:09:15;;;;;;;14.73;12.90;;;14.00;99.90;;;;;;4930697;28;20045;-83
2022/09/12 02:11:43;;;;;;;13.20;11.68;;;14.00;99.90;;;;;;4936362;28;20051;-83
2022/09/12 02:14:18;;;;;;;12.27;11.07;;;14.00;99.90;;;;;;4920899;29;20122;-82
2022/09/12 02:17:02;;;;;;;15.27;13.65;;;13.90;99.90;;;;;;4920918;29;20075;-82
2022/09/12 02:19:34;;;;;;;14.55;12.57;;;13.80;99.90;;;;;;4935191;29;20429;-81
2022/09/12 02:22:03;;;;;;;14.70;13.27;;;13.90;99.90;;;;;;4921453;29;20081;-81
2022/09/12 02:24:32;;;;;;;14.82;13.32;;;13.90;99.90;;;;;;4910397;29;20050;-82
2022/09/12 02:27:21;;;;;;;15.40;13.80;;;13.90;99.90;;;;;;4914154;29;20039;-81
2022/09/12 02:29:47;;;;;;;15.63;14.13;;;13.90;99.90;;;;;;4948059;28;20078;-82
2022/09/12 02:32:46;;;;;;;15.68;14.13;;;13.80;99.90;;;;;;4953189;29;20118;-82
2022/09/12 02:35:17;;;;;;;16.83;14.82;;;14.00;99.90;;;;;;4931251;29;20050;-81
2022/09/12 02:37:56;;;;;;;16.20;14.60;;;13.80;99.90;;;;;;4920335;29;21112;-82
2022/09/12 02:40:23;;;;;;;16.00;14.27;;;13.90;99.90;;;;;;4929116;29;20058;-83
2022/09/12 02:42:49;;;;;;;17.67;15.88;;;13.90;99.90;;;;;;4920914;29;20079;-83
2022/09/12 02:45:15;;;;;;;18.20;16.33;;;13.80;99.90;;;;;;4936130;28;20039;-82
2022/09/12 02:47:49;;;;;;;17.98;16.25;;;13.90;99.90;;;;;;4902623;29;20050;-82
2022/09/12 02:50:16;;;;;;;18.98;16.98;;;14.00;99.90;;;;;;4935992;29;20038;-83
2022/09/12 02:52:42;;;;;;;19.80;17.70;;;14.10;99.90;;;;;;4939118;29;20117;-83
2022/09/12 02:55:12;;;;;;;21.65;19.45;;;14.10;99.90;;;;;;4917974;29;20051;-83
2022/09/12 02:57:39;;;;;;;20.95;18.80;;;14.10;99.90;;;;;;4936846;29;20090;-83
2022/09/12 03:00:06;;;;;;;21.60;18.80;;;14.20;99.90;;;;;;4935142;28;20062;-82
2022/09/12 03:02:47;;;;;;;21.08;18.98;;;14.10;99.90;;;;;;4919161;29;20086;-82
2022/09/12 03:05:47;;;;;;;22.45;20.10;;;14.20;99.90;;;;;;4932246;29;20078;-83
2022/09/12 03:08:38;;;;;;;22.33;19.33;;;14.20;99.90;;;;;;4921918;29;20055;-82
2022/09/12 03:11:12;;;;;;;20.80;18.60;;;14.20;99.90;;;;;;4919700;29;20049;-81
2022/09/12 03:13:44;;;;;;;21.77;19.55;;;14.20;99.90;;;;;;4936829;29;20130;-82
2022/09/12 03:16:50;;;;;;;23.88;19.58;;;14.30;99.90;;;;;;4919784;29;20039;-81
2022/09/12 03:19:51;;;;;;;22.33;20.02;;;14.30;99.90;;;;;;4930225;29;20047;-82
2022/09/12 03:22:47;;;;;;;23.30;20.90;;;14.30;99.90;;;;;;4968173;28;20043;-82
2022/09/12 03:25:38;;;;;;;24.40;21.77;;;14.30;99.90;;;;;;4918679;28;20122;-80
2022/09/12 03:28:12;;;;;;;24.05;21.30;;;14.30;99.90;;;;;;4934691;29;20697;-82
2022/09/12 03:30:38;;;;;;;;;;;14.30;99.90;;;;;;4910690;29;20035;-80
2022/09/12 03:33:04;;;;;;;22.70;20.25;;;14.30;99.90;;;;;;4934435;29;19925;-80
2022/09/12 03:35:30;;;;;;;23.55;21.10;;;14.20;99.90;;;;;;4918575;29;20066;-81
2022/09/12 03:37:55;;;;;;;25.70;21.13;;;14.30;99.90;;;;;;4925193;28;20039;-80
2022/09/12 03:40:21;;;;;;;23.90;21.50;;;14.20;99.90;;;;;;4897695;29;20040;-81
2022/09/12 03:42:47;;;;;;;25.58;21.55;;;14.20;99.90;;;;;;4920924;29;20135;-81
2022/09/12 03:45:13;;;;;;;24.80;22.10;;;14.10;99.90;;;;;;4920042;29;20174;-80
2022/09/12 03:47:39;;;;;;;24.55;21.85;;;14.10;99.90;;;;;;4934633;29;20046;-81
2022/09/12 03:50:05;;;;;;;26.17;22.10;;;14.20;99.90;;;;;;4934387;29;20046;-80
2022/09/12 03:52:31;;;;;;;23.80;21.33;;;14.10;99.90;;;;;;4936466;29;20059;-80
2022/09/12 03:54:57;;;;;;;23.08;20.58;;;14.20;99.90;;;;;;4911215;29;20040;-81
2022/09/12 03:57:22;;;;;;;26.58;23.27;;;14.20;99.90;;;;;;4917498;29;20500;-81
2022/09/12 03:59:51;;;;;;;24.50;21.50;;;14.20;99.90;;;;;;4903867;29;20043;-79
2022/09/12 04:02:17;;;;;;;24.25;21.65;;;14.30;99.90;;;;;;4916971;29;20508;-82
2022/09/12 04:04:43;;;;;;;25.58;22.88;;;14.20;99.90;;;;;;4935350;29;20038;-82
2022/09/12 04:07:10;;;;;;;25.85;22.58;;;14.30;99.90;;;;;;4919866;29;20035;-83
2022/09/12 04:09:35;;;;;;;26.08;22.58;;;14.30;99.90;;;;;;4893383;29;20048;-82
2022/09/12 04:12:02;;;;;;;26.23;23.30;;;14.30;99.90;;;;;;4906057;29;20048;-83
2022/09/12 04:14:27;;;;;;;24.75;22.05;;;14.30;99.90;;;;;;4945040;28;20133;-84
2022/09/12 04:16:53;;;;;;;27.05;23.58;;;14.30;99.90;;;;;;4946160;29;20050;-82
2022/09/12 04:19:19;;;;;;;27.55;23.63;;;14.20;99.90;;;;;;4900194;29;20063;-83
2022/09/12 04:21:44;;;;;;;25.63;22.90;;;14.20;99.90;;;;;;4920319;29;20035;-83
2022/09/12 04:24:10;;;;;;;24.27;21.55;;;14.30;99.90;;;;;;4904244;29;20060;-83
2022/09/12 04:26:36;;;;;;;25.27;21.85;;;14.30;99.90;;;;;;4901583;29;20385;-82
2022/09/12 04:29:02;;;;;;;23.80;21.27;;;14.30;99.90;;;;;;4934914;29;20561;-83
2022/09/12 04:31:28;;;;;;;26.35;22.92;;;14.20;99.90;;;;;;4902019;28;20043;-81
2022/09/12 04:33:58;;;;;;;24.92;21.05;;;14.20;99.90;;;;;;4918822;28;20039;-81
2022/09/12 04:36:32;;;;;;;25.15;22.15;;;14.20;99.90;;;;;;4936244;29;20047;-81
2022/09/12 04:38:59;;;;;;;25.08;22.38;;;14.20;99.90;;;;;;4918424;28;20050;-83
2022/09/12 04:41:31;;;;;;;26.52;21.65;;;14.20;99.90;;;;;;4921329;28;20405;-80
2022/09/12 04:44:03;;;;;;;29.13;21.85;;;14.20;99.90;;;;;;4906534;28;20575;-81
2022/09/12 04:46:31;;;;;;;27.42;23.02;;;14.20;99.90;;;;;;4938338;29;20039;-80
2022/09/12 04:48:57;;;;;;;26.50;22.13;;;14.20;99.90;;;;;;4938701;29;20381;-80
2022/09/12 04:51:32;;;;;;;26.80;22.75;;;14.30;99.90;;;;;;4912901;29;20047;-80
2022/09/12 04:54:01;;;;;;;26.90;21.60;;;14.20;99.90;;;;;;4934873;29;20138;-80
2022/09/12 04:56:28;;;;;;;27.73;22.60;;;14.30;99.90;;;;;;4937277;28;20051;-80
2022/09/12 04:58:57;;;;;;;26.83;22.35;;;14.40;99.90;;;;;;4904859;28;20048;-81
2022/09/12 05:01:23;;;;;;;26.17;22.50;;;14.50;99.90;;;;;;4935450;29;20472;-80
2022/09/12 05:03:49;;;;;;;28.50;22.52;;;14.40;99.90;;;;;;4937371;28;20058;-80
2022/09/12 05:06:17;;;;;;;26.80;21.85;;;14.40;99.90;;;;;;4935444;28;20032;-80
2022/09/12 05:08:44;;;;;;;28.60;24.13;;;14.50;99.90;;;;;;4936980;29;20039;-80
2022/09/12 05:11:13;;;;;;;28.40;23.98;;;14.60;99.90;;;;;;4947275;29;20053;-80
2022/09/12 05:13:39;;;;;;;29.85;23.83;;;14.80;99.90;;;;;;4937946;28;20047;-82
2022/09/12 05:16:06;;;;;;;32.92;25.30;;;14.70;99.90;;;;;;4938364;29;20048;-81
2022/09/12 05:18:33;;;;;;;30.40;25.27;;;14.90;99.90;;;;;;4907154;29;20054;-82
2022/09/12 05:21:00;;;;;;;32.17;25.23;;;14.90;99.90;;;;;;4922931;29;20067;-81
2022/09/12 05:23:27;;;;;;;33.58;24.90;;;15.10;99.90;;;;;;4930876;29;20055;-82
2022/09/12 05:25:55;;;;;;;32.83;25.63;;;15.10;99.90;;;;;;4953770;29;20404;-82
2022/09/12 05:28:22;;;;;;;31.25;25.42;;;15.10;99.90;;;;;;4935481;29;20039;-83
2022/09/12 05:30:58;;;;;;;35.55;24.90;;;15.10;99.90;;;;;;4919956;29;20093;-83
2022/09/12 05:33:24;;;;;;;28.27;24.42;;;15.20;99.90;;;;;;4946456;29;20491;-84
2022/09/12 05:35:53;;;;;;;30.70;25.13;;;15.10;99.90;;;;;;4937721;29;20039;-86
2022/09/12 05:38:19;;;;;;;31.83;25.10;;;15.30;99.90;;;;;;4916374;29;20047;-83
2022/09/12 05:40:44;;;;;;;29.55;25.73;;;15.20;99.90;;;;;;4938295;29;20485;-85
2022/09/12 05:43:11;;;;;;;31.80;25.13;;;15.30;99.90;;;;;;4923425;29;20641;-85
2022/09/12 05:45:37;;;;;;;31.33;24.15;;;15.40;99.90;;;;;;4912197;29;20054;-84
2022/09/12 05:48:04;;;;;;;30.27;24.45;;;15.40;99.90;;;;;;4933905;29;20039;-87
2022/09/12 05:50:29;;;;;;;31.10;24.55;;;14.20;99.90;;;;;;4916732;28;20054;-84
2022/09/12 05:52:58;;;;;;;32.90;25.08;;;15.50;99.90;;;;;;4922233;29;20067;-83
2022/09/12 05:55:24;;;;;;;35.20;25.05;;;15.50;99.90;;;;;;4934623;28;20071;-86
2022/09/12 05:57:52;;;;;;;28.88;24.02;;;15.60;99.90;;;;;;4930726;29;20043;-86
2022/09/12 06:00:19;;;;;;;26.92;23.95;;;15.50;99.90;;;;;;4926089;28;20484;-85
2022/09/12 06:02:52;;;;;;;29.42;23.70;;;15.60;99.90;;;;;;4922176;29;20055;-83
2022/09/12 06:05:18;;;;;;;27.92;23.70;;;15.50;99.90;;;;;;4922089;29;20039;-85
2022/09/12 06:07:46;;;;;;;27.10;22.98;;;15.60;99.90;;;;;;4926520;28;20045;-81
2022/09/12 06:10:12;;;;;;;29.05;24.10;;;15.50;99.90;;;;;;4968926;28;20028;-81
2022/09/12 06:12:38;;;;;;;27.70;23.05;;;15.60;99.90;;;;;;4905310;29;20542;-81
2022/09/12 06:15:04;;;;;;;27.98;23.50;;;15.60;99.90;;;;;;4893426;28;20090;-80
2022/09/12 06:17:31;;;;;;;30.42;23.52;;;15.50;99.90;;;;;;4903463;28;20043;-82
2022/09/12 06:19:57;;;;;;;29.88;22.58;;;15.60;99.90;;;;;;4928040;28;20043;-84
2022/09/12 06:22:26;;;;;;;29.60;24.50;;;15.70;99.90;;;;;;4949012;28;20045;-83
2022/09/12 06:25:17;;;;;;;32.17;24.48;;;15.60;99.90;;;;;;4938966;28;20575;-84
2022/09/12 06:27:46;;;;;;;28.73;23.38;;;14.30;99.90;;;;;;4928086;28;20146;-84
2022/09/12 06:30:20;;;;;;;31.50;24.05;;;15.70;99.90;;;;;;4936894;29;20044;-84
2022/09/12 06:36:18;;;;;;;29.95;23.90;;;14.50;99.90;;;;;;4868869;29;20080;-85
2022/09/12 06:38:59;;;;;;;28.92;24.48;;;15.30;99.90;;;;;;4921940;29;20046;-86
2022/09/12 06:41:28;;;;;;;31.13;24.48;;;15.90;99.90;;;;;;4918468;29;20118;-84
2022/09/12 06:43:55;;;;;;;33.38;24.55;;;15.70;99.90;;;;;;4932003;28;20066;-85
2022/09/12 06:46:21;;;;;;;34.15;25.30;;;15.80;99.90;;;;;;4941217;28;20489;-84
2022/09/12 06:48:50;;;;;;;32.97;26.15;;;15.90;99.90;;;;;;4940815;28;20043;-84
2022/09/12 06:51:18;;;;;;;36.90;26.08;;;15.70;99.90;;;;;;4925775;28;20043;-85
2022/09/12 06:53:45;;;;;;;35.05;25.67;;;15.90;99.90;;;;;;4931104;29;20047;-85
2022/09/12 06:56:20;;;;;;;32.30;26.05;;;15.80;99.90;;;;;;4937956;29;20047;-85
2022/09/12 06:58:50;;;;;;;33.05;26.02;;;15.80;99.90;;;;;;4920989;29;20043;-85
2022/09/12 07:01:18;;;;;;;35.22;26.63;;;15.70;99.90;;;;;;4918668;29;20044;-86
2022/09/12 07:03:50;;;;;;;34.13;25.85;;;15.90;99.90;;;;;;4902252;29;20043;-84
2022/09/12 07:06:18;;;;;;;38.40;26.45;;;15.90;99.90;;;;;;4904061;29;20098;-85
2022/09/12 07:08:44;;;;;;;34.70;25.90;;;15.90;99.90;;;;;;4915784;29;20497;-85
2022/09/12 07:11:31;;;;;;;35.58;25.60;;;15.80;99.90;;;;;;4918300;29;20044;-84
2022/09/12 07:13:59;;;;;;;35.00;25.75;;;15.80;99.90;;;;;;4918647;29;20044;-84
2022/09/12 07:16:24;;;;;;;41.28;28.30;;;15.80;99.90;;;;;;4918210;29;20040;-85
2022/09/12 07:19:02;;;;;;;35.97;27.02;;;16.00;99.90;;;;;;4921267;29;20057;-84
2022/09/12 07:21:38;;;;;;;36.58;27.08;;;15.90;99.90;;;;;;4937889;29;20039;-86
2022/09/12 07:24:07;;;;;;;37.92;27.08;;;15.90;99.90;;;;;;4921956;29;20043;-85
2022/09/12 07:26:33;;;;;;;37.20;26.50;;;16.10;99.90;;;;;;4920791;29;20039;-86
2022/09/12 07:28:59;;;;;;;35.67;26.50;;;16.10;99.90;;;;;;4921049;29;20039;-85
2022/09/12 07:31:33;;;;;;;38.38;26.65;;;16.10;99.90;;;;;;4937315;29;20452;-90
2022/09/12 07:34:04;;;;;;;35.15;25.67;;;16.30;99.90;;;;;;4921949;29;20039;-84
2022/09/12 07:36:33;;;;;;;36.97;26.13;;;16.90;99.90;;;;;;4906241;29;20050;-83
2022/09/12 07:39:02;;;;;;;34.85;25.70;;;16.00;99.90;;;;;;4920828;29;20106;-84
2022/09/12 07:41:35;;;;;;;35.83;26.45;;;16.30;99.90;;;;;;4936956;29;20043;-83
2022/09/12 07:44:55;;;;;;;32.85;25.10;;;17.00;99.90;;;;;;4935913;29;20054;-85
2022/09/12 07:47:27;;;;;;;37.40;26.33;;;16.40;99.90;;;;;;4919450;29;20058;-84
2022/09/12 07:49:59;;;;;;;32.95;25.38;;;16.60;99.90;;;;;;4916864;29;20052;-85
2022/09/12 07:53:06;;;;;;;36.70;26.83;;;16.60;99.90;;;;;;4914995;29;20054;-85
2022/09/12 07:59:37;;;;;;;40.45;27.75;;;17.60;99.90;;;;;;4912999;29;20102;-85
2022/09/12 08:06:25;;;;;;;39.53;26.85;;;17.00;99.90;;;;;;4801317;29;20082;-86
2022/09/12 08:08:58;;;;;;;36.35;26.48;;;16.90;99.90;;;;;;4928687;29;20047;-86
2022/09/12 08:11:26;;;;;;;35.33;25.25;;;16.30;99.90;;;;;;4936594;28;20081;-85
2022/09/12 08:13:57;;;;;;;37.83;26.00;;;17.10;99.90;;;;;;4935339;29;20055;-87
2022/09/12 08:16:57;;;;;;;38.30;27.55;;;16.70;99.90;;;;;;4937566;29;20091;-84
2022/09/12 08:19:30;;;;;;;33.22;25.40;;;17.40;99.90;;;;;;4936910;29;20526;-85
2022/09/12 08:21:57;;;;;;;33.85;24.65;;;;;;;;;;4900698;29;20083;-87
2022/09/12 08:24:32;;;;;;;33.63;24.80;;;17.40;99.90;;;;;;4936875;28;20030;-85
2022/09/12 08:26:58;;;;;;;34.05;24.85;;;17.30;99.90;;;;;;4943438;28;20049;-85
2022/09/12 08:29:34;;;;;;;33.08;25.25;;;17.50;99.90;;;;;;4943781;28;20038;-85
2022/09/12 08:32:00;;;;;;;33.05;23.67;;;17.40;99.90;;;;;;4906869;29;20050;-84
2022/09/12 08:34:29;;;;;;;30.55;23.23;;;17.40;99.90;;;;;;4922846;29;20039;-85
2022/09/12 08:36:57;;;;;;;33.00;24.08;;;18.60;99.90;;;;;;4955825;29;20134;-84
2022/09/12 08:39:23;;;;;;;30.98;22.50;;;17.50;99.90;;;;;;4954122;29;20523;-81
2022/09/12 08:42:01;;;;;;;32.53;24.15;;;17.50;99.90;;;;;;4921356;29;20047;-84
2022/09/12 08:44:55;;;;;;;31.40;23.60;;;17.70;99.90;;;;;;4923246;29;20508;-84
2022/09/12 08:47:45;;;;;;;28.92;22.33;;;17.70;99.90;;;;;;4928095;29;20042;-85
2022/09/12 08:50:18;;;;;;;32.83;23.25;;;17.80;99.90;;;;;;4938990;29;20094;-83
2022/09/12 08:52:48;;;;;;;29.45;22.90;;;17.90;99.90;;;;;;4938863;29;20047;-82
2022/09/12 08:55:17;;;;;;;35.30;22.70;;;18.00;99.90;;;;;;4922971;29;20051;-82
2022/09/12 08:57:45;;;;;;;29.35;21.70;;;18.10;99.90;;;;;;4918112;29;20110;-84
2022/09/12 09:00:12;;;;;;;28.15;20.60;;;18.10;99.90;;;;;;4902772;29;20150;-84
2022/09/12 09:02:58;;;;;;;26.73;19.58;;;18.10;99.90;;;;;;4888433;29;20134;-84
2022/09/12 09:05:34;;;;;;;27.58;20.48;;;18.20;99.90;;;;;;4902315;29;20065;-80
2022/09/12 09:08:07;;;;;;;28.08;20.20;;;18.30;99.90;;;;;;4903739;29;20043;-81
2022/09/12 09:10:47;;;;;;;25.88;18.77;;;18.20;99.90;;;;;;4904970;29;20063;-82
2022/09/12 09:16:33;;;;;;;24.80;18.80;;;18.40;99.90;;;;;;4920147;29;20044;-83
2022/09/12 09:19:20;;;;;;;25.13;18.70;;;18.40;99.90;;;;;;4903698;29;20075;-82
2022/09/12 09:21:52;;;;;;;29.33;20.50;;;18.40;99.90;;;;;;4902698;29;20051;-83
2022/09/12 09:24:23;;;;;;;25.77;17.42;;;18.50;99.90;;;;;;4904135;29;20467;-83
2022/09/12 09:27:00;;;;;;;27.67;18.95;;;18.60;99.90;;;;;;4902380;29;20039;-83
2022/09/12 09:29:40;;;;;;;24.88;16.58;;;18.50;99.90;;;;;;4904221;29;20043;-85
2022/09/12 09:32:17;;;;;;;25.15;19.17;;;18.50;99.90;;;;;;4903941;29;20704;-83
2022/09/12 09:34:43;;;;;;;26.90;19.73;;;18.50;99.90;;;;;;4884947;29;20190;-83
2022/09/12 09:37:42;;;;;;;23.38;18.05;;;18.60;99.90;;;;;;4896005;29;20043;-83
2022/09/12 09:40:28;;;;;;;25.45;18.38;;;18.50;99.90;;;;;;4901844;29;20064;-84
2022/09/12 09:43:28;;;;;;;24.30;17.17;;;18.70;99.90;;;;;;4905465;29;20130;-82
2022/09/12 09:45:55;;;;;;;27.73;18.95;;;18.70;99.90;;;;;;4906834;29;20125;-83
2022/09/12 09:48:35;;;;;;;23.13;16.52;;;18.90;99.90;;;;;;4899514;29;20036;-83
2022/09/12 09:51:06;;;;;;;26.83;18.55;;;18.70;99.90;;;;;;4884511;29;20047;-83
2022/09/12 09:53:51;;;;;;;26.70;18.20;;;19.00;99.90;;;;;;4891333;29;20058;-83
2022/09/12 09:56:33;;;;;;;;;;;19.20;99.90;;;;;;4919343;29;20039;-81
2022/09/12 09:59:28;;;;;;;22.45;16.20;;;19.50;99.90;;;;;;4951967;28;19918;-84
2022/09/12 10:02:31;;;;;;;22.50;15.82;;;19.60;99.90;;;;;;4920794;29;20040;-81
2022/09/12 10:09:02;;;;;;;23.48;17.27;;;19.90;99.90;;;;;;4953985;28;20078;-82
2022/09/12 10:11:35;;;;;;;23.50;17.92;;;19.70;99.90;;;;;;4921400;29;20047;-83
2022/09/12 10:14:15;;;;;;;22.80;18.38;;;20.30;99.90;;;;;;4916863;29;20126;-85
2022/09/12 10:16:53;;;;;;;23.75;18.55;;;20.40;99.90;;;;;;4940111;29;20056;-82
2022/09/12 10:19:57;;;;;;;24.40;18.52;;;20.40;99.90;;;;;;4920992;29;20476;-83
2022/09/12 10:22:35;;;;;;;24.20;18.03;;;20.60;99.90;;;;;;4894274;29;20806;-82
2022/09/12 10:25:12;;;;;;;22.20;16.65;;;20.60;99.90;;;;;;4872298;29;20053;-82
2022/09/12 10:28:01;;;;;;;25.23;18.90;;;21.00;99.90;;;;;;4876052;29;20053;-85
2022/09/12 10:31:01;;;;;;;24.67;18.58;;;21.70;99.90;;;;;;4875673;29;20121;-85
2022/09/12 10:33:28;;;;;;;28.77;19.45;;;21.20;99.90;;;;;;4877863;29;20053;-84
2022/09/12 10:36:02;;;;;;;24.38;19.17;;;21.40;99.90;;;;;;4857397;29;20130;-82
2022/09/12 10:38:52;;;;;;;22.58;16.05;;;21.40;99.90;;;;;;4840117;29;20040;-81
2022/09/12 10:41:22;;;;;;;24.52;19.42;;;21.10;99.90;;;;;;4872219;29;20055;-82
2022/09/12 10:50:44;;;;;;;21.55;15.27;;;21.30;99.90;;;;;;4926652;29;20062;-82
2022/09/12 10:53:16;;;;;;;18.27;13.80;;;21.50;99.90;;;;;;4942896;29;20060;-85
2022/09/12 10:56:18;;;;;;;15.07;10.23;;;21.50;99.90;;;;;;4904787;29;20055;-81
2022/09/12 11:06:52;;;;;;;16.73;12.27;;;21.30;99.90;;;;;;4902397;29;20047;-86
2022/09/12 11:09:21;;;;;;;15.15;12.15;;;21.80;99.90;;;;;;4921315;28;20042;-84
2022/09/12 11:12:07;;;;;;;17.30;11.52;;;21.70;99.90;;;;;;4919330;29;20583;-82
2022/09/12 11:14:51;;;;;;;15.82;11.30;;;21.60;99.90;;;;;;4922443;28;20050;-85
2022/09/12 11:17:45;;;;;;;;;;;;;;;;;;;;;
2022/09/12 11:25:00;;;;;;;18.30;13.40;;;21.80;99.90;;;;;;4890119;29;20107;-86
2022/09/12 11:39:06;;;;;;;17.20;12.20;;;22.20;99.90;;;;;;4927712;28;20442;-84
2022/09/12 11:41:47;;;;;;;16.52;12.40;;;22.40;99.90;;;;;;4939479;28;20085;-84
2022/09/12 11:48:51;;;;;;;16.88;11.15;;;22.00;99.90;;;;;;4876404;29;20051;-84
2022/09/12 11:51:32;;;;;;;13.35;10.48;;;22.30;99.90;;;;;;4897864;28;20069;-86
2022/09/12 12:18:13;;;;;;;12.20;9.00;;;22.10;99.90;;;;;;4953013;29;20033;-85
2022/09/12 12:20:43;;;;;;;11.45;8.45;;;22.20;99.90;;;;;;4920328;29;20094;-84
2022/09/12 12:23:51;;;;;;;9.93;7.75;;;21.70;99.90;;;;;;4882080;29;21012;-84
2022/09/12 12:33:42;;;;;;;13.77;7.57;;;22.40;99.90;;;;;;4894229;29;20288;-88
2022/09/12 12:36:54;;;;;;;10.75;8.90;;;22.60;99.90;;;;;;4879138;29;20742;-87
2022/09/12 12:55:13;;;;;;;9.45;7.88;;;22.00;99.90;;;;;;4923092;28;20051;-88
2022/09/12 12:58:17;;;;;;;7.30;6.50;;;22.70;99.90;;;;;;4909851;29;20047;-85
2022/09/12 13:05:48;;;;;;;;;;;;;;;;;;;;;
2022/09/12 13:09:15;;;;;;;12.93;8.93;;;22.80;99.90;;;;;;4862542;29;20067;-85
2022/09/12 13:11:41;;;;;;;12.77;7.95;;;22.70;99.90;;;;;;4834504;29;20748;-85
2022/09/12 13:14:53;;;;;;;10.20;7.85;;;22.90;99.90;;;;;;4830770;29;20037;-84
2022/09/12 13:17:33;;;;;;;11.10;8.82;;;22.90;99.90;;;;;;4932693;29;20515;-82
2022/09/12 13:20:26;;;;;;;9.13;6.60;;;22.80;99.90;;;;;;4915702;29;20040;-83
2022/09/12 13:22:52;;;;;;;10.45;9.32;;;22.80;99.90;;;;;;4938552;28;20420;-84
2022/09/12 13:25:55;;;;;;;10.80;8.32;;;22.90;99.90;;;;;;4922948;29;20054;-85
2022/09/12 13:28:21;;;;;;;10.48;8.65;;;23.00;99.90;;;;;;4869834;28;20131;-83
2022/09/12 13:30:47;;;;;;;11.00;8.50;;;23.00;99.90;;;;;;4937279;29;20102;-82
2022/09/12 13:34:12;;;;;;;10.65;8.35;;;23.10;99.90;;;;;;4917150;29;20043;-83
2022/09/12 13:37:15;;;;;;;8.97;7.27;;;22.40;99.90;;;;;;4903651;29;20127;-85
2022/09/12 13:39:48;;;;;;;7.10;5.13;;;22.90;99.90;;;;;;4935019;29;20295;-85
2022/09/12 13:42:58;;;;;;;7.95;4.38;;;23.50;99.90;;;;;;4921169;29;20411;-85
2022/09/12 13:45:34;;;;;;;5.30;4.78;;;23.00;99.90;;;;;;4913519;29;20130;-87
2022/09/12 13:48:01;;;;;;;6.47;5.03;;;23.50;99.90;;;;;;4908929;29;20066;-87
2022/09/12 13:50:52;;;;;;;7.05;5.75;;;23.40;99.90;;;;;;4934883;29;20400;-87
2022/09/12 13:53:24;;;;;;;7.47;5.50;;;23.30;99.90;;;;;;4924080;29;20062;-83
2022/09/12 13:56:14;;;;;;;10.38;7.45;;;23.10;99.90;;;;;;4904536;29;20102;-86
2022/09/12 13:58:56;;;;;;;12.93;7.50;;;23.20;99.90;;;;;;4933724;29;20040;-83
2022/09/12 14:01:24;;;;;;;7.97;7.18;;;23.50;99.90;;;;;;4928690;29;20068;-84
2022/09/12 14:06:48;;;;;;;10.00;7.72;;;23.50;99.90;;;;;;4933990;29;20101;-84
2022/09/12 14:09:33;;;;;;;10.07;7.28;;;23.30;99.90;;;;;;4914158;29;20050;-81
2022/09/12 14:11:59;;;;;;;8.20;6.95;;;23.20;99.90;;;;;;4916917;29;20081;-82
2022/09/12 14:14:32;;;;;;;8.98;7.68;;;23.10;99.90;;;;;;4903438;29;20046;-87
2022/09/12 14:16:59;;;;;;;7.53;6.40;;;22.90;99.90;;;;;;4951130;29;20044;-85
2022/09/12 14:19:26;;;;;;;12.43;5.97;;;22.90;99.90;;;;;;4919457;29;20102;-84
2022/09/12 14:21:53;;;;;;;8.27;5.82;;;22.80;99.90;;;;;;4935250;29;20054;-84
2022/09/12 14:24:22;;;;;;;6.90;4.85;;;22.70;99.90;;;;;;4922222;29;20087;-85
2022/09/12 14:26:51;;;;;;;12.90;5.18;;;22.70;99.90;;;;;;4923224;29;20071;-85
2022/09/12 14:29:18;;;;;;;7.55;4.85;;;22.70;99.90;;;;;;4930940;29;20090;-85
2022/09/12 14:31:44;;;;;;;6.05;4.78;;;22.70;99.90;;;;;;4944163;29;20445;-85
2022/09/12 14:34:13;;;;;;;5.63;4.85;;;22.70;99.90;;;;;;4921941;29;20051;-84
2022/09/12 14:37:04;;;;;;;5.82;4.93;;;22.80;99.90;;;;;;4935824;29;20047;-85
2022/09/12 14:39:36;;;;;;;6.88;5.80;;;22.80;99.90;;;;;;4949978;29;20047;-85
2022/09/12 14:42:25;;;;;;;7.55;5.75;;;22.70;99.90;;;;;;4933120;29;20054;-83
2022/09/12 14:45:01;;;;;;;6.07;5.22;;;22.70;99.90;;;;;;4930085;29;20044;-82
2022/09/12 14:47:35;;;;;;;5.63;4.70;;;22.70;99.90;;;;;;4914983;29;20464;-84
2022/09/12 14:50:01;;;;;;;5.22;4.65;;;22.70;99.90;;;;;;4917689;29;20043;-84
2022/09/12 14:52:31;;;;;;;6.78;4.68;;;22.60;99.90;;;;;;4918240;29;20047;-81
2022/09/12 14:54:59;;;;;;;5.93;4.90;;;22.60;99.90;;;;;;4921524;29;20125;-84
2022/09/12 14:57:38;;;;;;;5.18;4.20;;;22.60;99.90;;;;;;4936348;29;20126;-84
2022/09/12 15:00:10;;;;;;;5.03;4.50;;;22.60;99.90;;;;;;4921637;29;20150;-85
2022/09/12 15:02:36;;;;;;;4.85;4.00;;;22.60;99.90;;;;;;4935492;28;20532;-85